Terminal Aerodrome Forecast
Issued by NWS

Home | Current Version | Previous Version | Text Only | Print | Product List | Glossary On
Versions: 1 2 3 4 5 6 7 8 9 10 11 12
749
FTUS45 KABQ 080936 AAA
TAFLVS
TAF AMD
KLVS 080936Z 0810/0906 19015KT P6SM SKC
     FM081300 18009KT P6SM SKC
     FM081800 15008KT P6SM SKC
     FM090100 VRB05KT P6SM SKC=

USA.gov is the U.S. government's official web portal to all federal, state and local government web resources and services.